createdAt,value
2018-06-05T00:01:11.016Z,74.69
2018-06-05T00:03:48.385Z,75.07
2018-06-05T00:06:19.886Z,75.05
2018-06-05T00:08:51.909Z,73.43
2018-06-05T00:11:20.769Z,74.41
2018-06-05T00:13:58.661Z,75.13
2018-06-05T00:16:41.267Z,74.34
2018-06-05T00:19:11.737Z,76.28
2018-06-05T00:21:42.558Z,76.93
2018-06-05T00:24:13.808Z,77.26
2018-06-05T00:26:45.620Z,77.29
2018-06-05T00:29:16.034Z,77.40
2018-06-05T00:31:45.530Z,75.22
2018-06-05T00:34:14.606Z,76.04
2018-06-05T00:36:43.943Z,76.35
2018-06-05T00:39:13.649Z,76.42
2018-06-05T00:41:44.575Z,77.19
2018-06-05T00:44:13.972Z,78.00
2018-06-05T00:46:43.148Z,78.56
2018-06-05T00:49:12.477Z,76.96
2018-06-05T00:51:59.920Z,78.09
2018-06-05T00:54:29.658Z,78.84
2018-06-05T00:57:00.179Z,77.32
2018-06-05T00:59:34.276Z,76.76
2018-06-05T01:04:52.008Z,77.22
2018-06-05T01:07:22.431Z,76.77
2018-06-05T01:09:51.611Z,78.50
2018-06-05T01:12:22.836Z,79.57
2018-06-05T01:14:54.412Z,80.41
2018-06-05T01:17:23.428Z,80.83
2018-06-05T01:19:52.656Z,81.31
2018-06-05T01:25:17.266Z,81.31
2018-06-05T01:27:46.242Z,79.20
2018-06-05T01:30:15.271Z,79.95
2018-06-05T01:32:44.143Z,80.27
2018-06-05T01:35:14.293Z,80.56
2018-06-05T01:37:48.813Z,80.67
2018-06-05T01:40:19.383Z,78.47
2018-06-05T01:42:48.892Z,77.38
2018-06-05T01:45:19.754Z,78.56
2018-06-05T01:47:48.979Z,77.05
2018-06-05T01:50:17.954Z,76.36
2018-06-05T01:52:47.640Z,77.91
2018-06-05T01:55:16.935Z,76.53
2018-06-05T01:57:53.237Z,77.95
2018-06-05T02:00:27.242Z,78.94
2018-06-05T02:02:56.302Z,79.28
2018-06-05T02:05:34.866Z,79.39
2018-06-05T02:08:20.483Z,79.47
2018-06-05T02:10:52.872Z,79.58
2018-06-05T02:13:22.307Z,79.56
2018-06-05T02:15:52.353Z,79.36
2018-06-05T02:18:22.556Z,79.26
2018-06-05T02:20:51.835Z,77.26
2018-06-05T02:23:21.560Z,77.86
2018-06-05T02:25:50.961Z,78.74
2018-06-05T02:28:20.094Z,78.97
2018-06-05T02:30:49.392Z,79.04
2018-06-05T02:33:18.633Z,78.92
2018-06-05T02:35:48.980Z,76.54
2018-06-05T02:38:20.420Z,77.43
2018-06-05T02:40:50.101Z,75.48
2018-06-05T02:43:19.410Z,76.59
2018-06-05T02:45:49.227Z,77.15
2018-06-05T02:48:19.170Z,77.06
2018-06-05T02:50:48.295Z,77.05
2018-06-05T02:53:19.297Z,77.16
2018-06-05T02:55:50.588Z,76.84
2018-06-05T02:58:22.314Z,76.98
2018-06-05T03:00:52.431Z,77.05
2018-06-05T03:03:22.156Z,74.74
2018-06-05T03:05:52.209Z,75.80
2018-06-05T03:08:21.424Z,76.28
2018-06-05T03:10:53.196Z,76.68
2018-06-05T03:13:22.353Z,76.81
2018-06-05T03:15:51.460Z,76.52
2018-06-05T03:18:21.504Z,76.45
2018-06-05T03:20:50.747Z,76.26
2018-06-05T03:23:20.031Z,76.12
2018-06-05T03:25:50.548Z,75.97
2018-06-05T03:28:23.569Z,76.01
2018-06-05T03:30:53.031Z,75.81
2018-06-05T03:33:24.866Z,75.67
2018-06-05T03:35:56.378Z,75.55
2018-06-05T03:38:27.260Z,75.64
2018-06-05T03:40:58.347Z,73.24
2018-06-05T03:43:29.061Z,74.21
2018-06-05T03:45:58.420Z,74.97
2018-06-05T03:48:27.747Z,75.05
2018-06-05T03:50:57.240Z,75.00
2018-06-05T03:53:27.201Z,74.76
2018-06-05T03:55:58.944Z,74.80
2018-06-05T03:58:28.066Z,74.67
2018-06-05T04:01:07.709Z,74.77
2018-06-05T04:03:37.077Z,74.94
2018-06-05T04:06:06.472Z,74.94
2018-06-05T04:08:35.869Z,74.81
2018-06-05T04:11:05.214Z,74.55
2018-06-05T04:13:39.826Z,74.63
2018-06-05T04:16:09.255Z,74.18
2018-06-05T04:18:38.902Z,73.88
2018-06-05T04:21:08.493Z,73.56
2018-06-05T04:23:38.999Z,73.41
2018-06-05T04:26:12.241Z,73.36
2018-06-05T04:28:41.272Z,73.21
2018-06-05T04:31:11.618Z,73.19
2018-06-05T04:33:41.580Z,72.83
2018-06-05T04:36:11.830Z,72.69
2018-06-05T04:38:40.729Z,72.77
2018-06-05T04:41:20.391Z,72.57
2018-06-05T04:43:51.648Z,72.69
2018-06-05T04:46:28.155Z,72.52
2018-06-05T04:51:51.797Z,72.09
2018-06-05T04:54:20.917Z,72.12
2018-06-05T04:56:51.273Z,68.61
2018-06-05T04:59:20.270Z,70.06
2018-06-05T05:01:49.552Z,67.82
2018-06-05T05:04:18.561Z,69.48
2018-06-05T05:06:50.021Z,69.87
2018-06-05T05:09:18.813Z,67.09
2018-06-05T05:11:47.744Z,65.76
2018-06-05T05:14:17.125Z,65.28
2018-06-05T05:16:48.528Z,67.75
2018-06-05T05:19:24.806Z,68.17
2018-06-05T05:24:43.030Z,68.87
2018-06-05T05:27:23.848Z,68.66
2018-06-05T05:32:41.986Z,66.08
2018-06-05T05:35:17.060Z,68.27
2018-06-05T05:37:54.204Z,68.58
2018-06-05T05:40:24.182Z,68.77
2018-06-05T05:43:08.433Z,68.68
2018-06-05T05:48:27.965Z,67.45
2018-06-05T05:51:16.057Z,68.03
2018-06-05T05:56:33.583Z,68.26
2018-06-05T05:59:11.553Z,68.34
2018-06-05T06:01:50.282Z,68.64
2018-06-05T06:07:18.329Z,68.96
2018-06-05T06:12:51.172Z,69.18
2018-06-05T06:15:22.314Z,69.11
2018-06-05T06:17:56.180Z,68.84
2018-06-05T06:20:28.461Z,68.64
2018-06-05T06:23:02.162Z,68.88
2018-06-05T06:28:20.538Z,69.18
2018-06-05T06:33:44.510Z,69.12
2018-06-05T06:39:06.651Z,68.85
2018-06-05T06:41:40.045Z,69.05
2018-06-05T06:44:10.118Z,68.86
2018-06-05T06:46:58.288Z,69.01
2018-06-05T06:49:29.481Z,69.34
2018-06-05T06:54:55.868Z,68.57
2018-06-05T07:00:31.612Z,68.05
2018-06-05T07:03:00.536Z,64.23
2018-06-05T07:08:30.773Z,67.24
2018-06-05T07:11:00.682Z,67.23
2018-06-05T07:13:35.314Z,67.13
2018-06-05T07:16:07.528Z,67.29
2018-06-05T07:18:39.895Z,67.22
2018-06-05T07:21:14.377Z,67.27
2018-06-05T07:23:46.338Z,67.85
2018-06-05T07:26:23.361Z,67.71
2018-06-05T07:28:54.403Z,67.42
2018-06-05T07:34:15.598Z,67.85
2018-06-05T07:39:33.692Z,67.66
2018-06-05T07:42:03.731Z,67.54
2018-06-05T07:44:38.829Z,66.99
2018-06-05T07:47:10.674Z,62.99
2018-06-05T07:49:44.747Z,64.87
2018-06-05T07:52:23.873Z,61.86
2018-06-05T07:55:02.040Z,64.28
2018-06-05T07:57:49.282Z,64.75
2018-06-05T08:00:26.349Z,64.83
2018-06-05T08:08:41.841Z,65.37
2018-06-05T08:11:24.043Z,65.13
2018-06-05T08:16:43.893Z,65.67
2018-06-05T08:19:28.397Z,65.29
2018-06-05T08:22:14.797Z,65.35
2018-06-05T08:24:43.996Z,65.54
2018-06-05T08:27:17.326Z,65.64
2018-06-05T08:29:51.205Z,65.46
2018-06-05T08:32:24.712Z,65.24
2018-06-05T08:34:57.148Z,65.46
2018-06-05T08:37:26.199Z,61.15
2018-06-05T08:39:55.239Z,63.53
2018-06-05T08:42:24.493Z,64.37
2018-06-05T08:44:53.449Z,64.34
2018-06-05T08:47:24.566Z,64.38
2018-06-05T08:49:54.718Z,64.49
2018-06-05T08:52:29.986Z,64.71
2018-06-05T08:54:59.006Z,60.81
2018-06-05T08:57:27.993Z,59.31
2018-06-05T09:00:07.566Z,61.90
2018-06-05T09:02:43.470Z,62.81
2018-06-05T09:05:15.126Z,63.28
2018-06-05T09:07:48.611Z,58.93
2018-06-05T09:10:22.130Z,61.69
2018-06-05T09:12:53.189Z,57.84
2018-06-05T09:15:22.231Z,60.41
2018-06-05T09:17:53.582Z,61.11
2018-06-05T09:20:35.094Z,61.43
2018-06-05T09:23:05.542Z,61.88
2018-06-05T09:28:34.318Z,61.63
2018-06-05T09:31:07.830Z,61.69
2018-06-05T09:33:39.237Z,61.31
2018-06-05T09:38:57.003Z,61.57
2018-06-05T09:41:31.127Z,61.41
2018-06-05T09:46:50.427Z,56.14
2018-06-05T09:52:06.928Z,58.58
2018-06-05T09:54:43.350Z,53.16
2018-06-05T09:57:13.716Z,56.77
2018-06-05T09:59:42.846Z,57.61
2018-06-05T10:02:11.740Z,57.96
2018-06-05T10:04:40.675Z,57.33
2018-06-05T10:07:13.386Z,57.36
2018-06-05T10:09:47.051Z,57.17
2018-06-05T10:12:20.886Z,57.23
2018-06-05T10:17:42.938Z,57.18
2018-06-05T10:20:14.472Z,57.34
2018-06-05T10:22:43.992Z,57.07
2018-06-05T10:25:15.916Z,56.61
2018-06-05T10:27:48.317Z,56.92
2018-06-05T10:30:17.873Z,56.76
2018-06-05T10:38:32.845Z,56.46
2018-06-05T10:43:58.257Z,52.39
2018-06-05T10:49:27.624Z,52.99
2018-06-05T10:51:58.492Z,53.65
2018-06-05T10:54:31.460Z,53.33
2018-06-05T10:57:12.865Z,53.20
2018-06-05T10:59:58.041Z,52.29
2018-06-05T11:02:27.038Z,51.65
2018-06-05T11:05:01.326Z,51.58
2018-06-05T11:07:32.800Z,44.64
2018-06-05T11:10:01.729Z,47.43
2018-06-05T11:15:19.559Z,46.75
2018-06-05T11:17:59.184Z,47.14
2018-06-05T11:23:17.536Z,47.37
2018-06-05T11:25:56.310Z,46.70
2018-06-05T11:28:28.617Z,46.89
2018-06-05T11:31:10.172Z,46.63
2018-06-05T11:33:43.397Z,47.40
2018-06-05T11:36:14.204Z,46.57
2018-06-05T11:38:53.441Z,46.22
2018-06-05T11:41:25.512Z,46.65
2018-06-05T11:44:07.763Z,47.87
2018-06-05T11:46:43.833Z,46.01
2018-06-05T11:49:16.949Z,44.51
2018-06-05T11:51:54.917Z,44.35
2018-06-05T11:54:35.728Z,39.22
2018-06-05T12:05:36.804Z,44.50
2018-06-05T12:11:01.420Z,44.19
2018-06-05T12:13:31.959Z,44.32
2018-06-05T12:16:04.349Z,44.57
2018-06-05T12:21:28.684Z,41.01
2018-06-05T12:29:48.151Z,43.38
2018-06-05T12:32:30.585Z,44.06
2018-06-05T12:35:01.200Z,43.27
2018-06-05T12:37:33.871Z,39.89
2018-06-05T12:40:04.253Z,42.54
2018-06-05T12:45:29.862Z,43.03
2018-06-05T12:48:02.305Z,42.18
2018-06-05T12:50:37.882Z,38.17
2018-06-05T12:53:06.820Z,41.47
2018-06-05T12:55:37.704Z,41.70
2018-06-05T12:58:16.304Z,42.09
2018-06-05T13:09:15.164Z,42.23
2018-06-05T13:14:37.251Z,41.81
2018-06-05T13:17:08.810Z,40.45
2018-06-05T13:19:47.393Z,41.88
2018-06-05T13:22:18.976Z,41.12
2018-06-05T13:24:53.553Z,41.00
2018-06-05T13:32:59.208Z,40.23
2018-06-05T13:35:36.239Z,39.93
2018-06-05T13:38:24.236Z,39.91
2018-06-05T13:40:59.025Z,36.39
2018-06-05T13:43:37.460Z,38.40
2018-06-05T13:51:58.495Z,38.45
2018-06-05T13:54:28.848Z,38.52
2018-06-05T13:59:47.949Z,38.20
2018-06-05T14:02:22.124Z,37.94
2018-06-05T14:07:52.085Z,34.40
2018-06-05T14:15:58.339Z,37.05
2018-06-05T14:18:30.321Z,37.03
2018-06-05T14:20:59.454Z,34.15
2018-06-05T14:26:19.241Z,36.24
2018-06-05T14:28:58.457Z,36.76
2018-06-05T14:34:18.708Z,37.93
2018-06-05T14:36:52.874Z,37.63
2018-06-05T14:39:23.171Z,36.69
2018-06-05T14:44:42.341Z,32.80
2018-06-05T14:50:01.497Z,32.82
2018-06-05T14:52:32.561Z,32.69
2018-06-05T14:55:05.376Z,32.19
2018-06-05T14:57:37.290Z,32.50
2018-06-05T15:00:08.595Z,31.77
2018-06-05T15:02:37.316Z,31.44
2018-06-05T15:05:05.994Z,31.88
2018-06-05T15:07:39.114Z,31.08
2018-06-05T15:10:07.741Z,30.60
2018-06-05T15:12:38.356Z,29.94
2018-06-05T15:15:07.367Z,29.89
2018-06-05T15:17:36.723Z,29.61
2018-06-05T15:23:02.294Z,29.54
2018-06-05T15:25:31.165Z,29.87
2018-06-05T15:28:00.270Z,30.16
2018-06-05T15:30:31.488Z,30.21
2018-06-05T15:35:48.035Z,28.58
2018-06-05T15:38:21.278Z,28.57
2018-06-05T15:40:50.766Z,29.45
2018-06-05T15:54:35.840Z,28.87
2018-06-05T15:57:05.274Z,28.32
2018-06-05T15:59:34.801Z,27.48
2018-06-05T16:02:09.190Z,27.16
2018-06-05T16:04:38.275Z,27.35
2018-06-05T16:07:11.605Z,27.04
2018-06-05T16:09:44.801Z,27.52
2018-06-05T16:18:01.923Z,27.05
2018-06-05T16:59:51.534Z,24.96
2018-06-05T17:02:20.430Z,24.95
2018-06-05T17:04:50.959Z,25.04
2018-06-05T17:07:24.742Z,25.20
2018-06-05T17:09:53.732Z,21.43
2018-06-05T17:12:22.626Z,23.79
2018-06-05T17:14:51.967Z,24.75
2018-06-05T17:17:25.679Z,24.59
2018-06-05T17:19:55.241Z,25.14
2018-06-05T17:22:26.557Z,24.53
2018-06-05T17:24:55.562Z,24.47
2018-06-05T17:27:24.726Z,20.55
2018-06-05T17:30:07.095Z,24.09
2018-06-05T17:32:39.800Z,24.84
2018-06-05T17:35:27.784Z,25.35
2018-06-05T17:38:02.510Z,25.55
2018-06-05T17:40:43.040Z,25.46
2018-06-05T17:43:13.443Z,25.86
2018-06-05T17:45:42.805Z,25.86
2018-06-05T17:48:11.661Z,25.67
2018-06-05T17:50:47.211Z,25.92
2018-06-05T17:53:28.462Z,26.83
2018-06-05T17:55:59.311Z,27.77
2018-06-05T17:58:31.128Z,28.80
2018-06-05T18:01:01.134Z,29.94
2018-06-05T18:03:33.594Z,27.79
2018-06-05T18:06:04.601Z,28.94
2018-06-05T18:08:33.669Z,29.77
2018-06-05T18:11:03.728Z,30.96
2018-06-05T18:13:33.931Z,34.04
2018-06-05T18:16:05.626Z,35.42
2018-06-05T18:18:38.494Z,36.85
2018-06-05T18:21:07.661Z,37.76
2018-06-05T18:23:36.744Z,38.85
2018-06-05T18:26:10.393Z,39.65
2018-06-05T18:28:39.362Z,40.07
2018-06-05T18:31:17.571Z,40.78
2018-06-05T18:33:52.523Z,41.35
2018-06-05T18:36:40.898Z,41.65
2018-06-05T18:39:12.191Z,42.61
2018-06-05T18:44:48.815Z,42.84
2018-06-05T18:50:11.554Z,43.48
2018-06-05T18:52:46.574Z,44.14
2018-06-05T18:58:14.217Z,45.54
2018-06-05T19:03:36.147Z,45.51
2018-06-05T19:20:04.136Z,51.98
2018-06-05T19:25:30.760Z,53.42
2018-06-05T20:42:58.823Z,63.27
2018-06-05T20:48:18.960Z,63.34
2018-06-05T20:53:38.890Z,63.58
2018-06-05T20:56:11.826Z,63.58
2018-06-05T20:58:46.116Z,64.19
2018-06-05T21:01:33.786Z,64.34
2018-06-05T21:06:55.706Z,64.35
2018-06-05T21:09:28.726Z,64.52
2018-06-05T21:17:39.062Z,63.22
2018-06-05T21:20:19.575Z,64.40
2018-06-05T21:22:52.424Z,64.33
2018-06-05T21:25:22.911Z,64.35
2018-06-05T21:27:53.139Z,64.16
2018-06-05T21:30:25.224Z,62.84
2018-06-05T21:32:55.441Z,64.12
2018-06-05T21:35:33.836Z,64.70
2018-06-05T21:43:43.339Z,65.98
2018-06-05T21:46:16.935Z,65.62
2018-06-05T21:57:12.788Z,66.14
2018-06-05T22:02:30.824Z,66.03
2018-06-05T22:05:18.882Z,66.26
2018-06-05T22:16:15.091Z,66.70
2018-06-05T22:21:37.802Z,67.01
2018-06-05T22:24:09.467Z,67.34
2018-06-05T22:35:06.638Z,67.86
2018-06-05T22:45:59.732Z,68.68
2018-06-05T22:59:46.543Z,70.44
2018-06-05T23:02:32.283Z,71.30
2018-06-05T23:07:57.128Z,71.39
2018-06-05T23:10:29.750Z,71.73
2018-06-05T23:13:00.783Z,72.27
2018-06-05T23:15:29.688Z,72.79
2018-06-05T23:18:00.636Z,73.35
2018-06-05T23:20:29.491Z,73.98
2018-06-05T23:22:58.751Z,73.79
2018-06-05T23:25:29.088Z,73.22
2018-06-05T23:28:00.782Z,72.30
2018-06-05T23:30:34.872Z,71.51
2018-06-05T23:33:07.854Z,70.95
2018-06-05T23:35:44.032Z,70.09
2018-06-05T23:38:16.005Z,69.10
2018-06-05T23:40:45.343Z,68.45
2018-06-05T23:43:17.337Z,67.82
2018-06-05T23:45:47.176Z,67.14
2018-06-05T23:48:18.052Z,66.59
2018-06-05T23:50:50.828Z,66.19
2018-06-05T23:56:08.710Z,64.09
2018-06-05T23:58:51.821Z,64.10
